createdAt,value
2023-03-29T00:04:02.418Z,-2.69
2023-03-29T00:09:10.950Z,-2.70
2023-03-29T00:14:18.286Z,-2.70
2023-03-29T00:19:25.663Z,-2.72
2023-03-29T00:24:33.159Z,-2.72
2023-03-29T00:29:40.447Z,-2.73
2023-03-29T00:34:51.297Z,-2.74
2023-03-29T00:39:59.287Z,-2.75
2023-03-29T00:45:19.222Z,-2.75
2023-03-29T00:50:31.332Z,-2.77
2023-03-29T00:55:44.256Z,-2.81
2023-03-29T01:00:55.923Z,-2.85
2023-03-29T01:06:09.188Z,-2.91
2023-03-29T01:11:19.810Z,-2.96
2023-03-29T01:16:28.953Z,-3.01
2023-03-29T01:21:43.051Z,-3.07
2023-03-29T01:27:02.378Z,-3.13
2023-03-29T01:32:13.733Z,-3.20
2023-03-29T01:37:26.971Z,-3.27
2023-03-29T01:42:44.617Z,-3.32
2023-03-29T01:48:01.025Z,-3.37
2023-03-29T01:53:13.534Z,-3.42
2023-03-29T01:58:24.130Z,-3.48
2023-03-29T02:03:42.974Z,-3.52
2023-03-29T02:08:50.889Z,-3.56
2023-03-29T02:13:58.811Z,-3.61
2023-03-29T02:19:07.108Z,-3.66
2023-03-29T02:24:19.689Z,-3.72
2023-03-29T02:29:27.773Z,-3.77
2023-03-29T02:34:41.289Z,-3.80
2023-03-29T02:39:50.295Z,-3.83
2023-03-29T02:45:01.376Z,-3.87
2023-03-29T02:50:10.864Z,-3.91
2023-03-29T02:55:21.632Z,-3.92
2023-03-29T03:00:29.704Z,-3.93
2023-03-29T03:05:37.393Z,-3.93
2023-03-29T03:10:46.253Z,-3.95
2023-03-29T03:15:54.568Z,-3.98
2023-03-29T03:21:02.847Z,-4.00
2023-03-29T03:26:11.169Z,-4.04
2023-03-29T03:31:19.962Z,-4.09
2023-03-29T03:36:47.697Z,-4.15
2023-03-29T03:41:55.088Z,-4.19
2023-03-29T03:47:03.012Z,-4.26
2023-03-29T03:52:11.137Z,-4.31
2023-03-29T03:57:19.131Z,-4.38
2023-03-29T04:02:31.387Z,-4.45
2023-03-29T04:07:38.906Z,-4.50
2023-03-29T04:13:05.445Z,-4.56
2023-03-29T04:18:14.711Z,-4.62
2023-03-29T04:23:26.558Z,-4.65
2023-03-29T04:28:34.746Z,-4.67
2023-03-29T04:33:52.770Z,-4.69
2023-03-29T04:39:01.826Z,-4.70
2023-03-29T04:44:10.054Z,-4.73
2023-03-29T04:49:18.141Z,-4.71
2023-03-29T04:54:28.857Z,-4.70
2023-03-29T04:59:56.786Z,-4.65
2023-03-29T05:05:39.864Z,-4.58
2023-03-29T05:10:48.018Z,-4.51
2023-03-29T05:15:55.643Z,-4.42
2023-03-29T05:21:04.735Z,-4.32
2023-03-29T05:26:15.682Z,-4.22
2023-03-29T05:31:28.574Z,-4.10
2023-03-29T05:36:37.329Z,-3.88
2023-03-29T05:41:45.017Z,-3.44
2023-03-29T05:47:12.815Z,-2.87
2023-03-29T05:52:20.656Z,-2.29
2023-03-29T05:57:28.672Z,-1.78
2023-03-29T06:02:37.166Z,-1.37
2023-03-29T06:07:44.695Z,-1.08
2023-03-29T06:12:54.897Z,-0.95
2023-03-29T06:18:04.387Z,-0.91
2023-03-29T06:23:11.954Z,-0.91
2023-03-29T06:28:20.076Z,-0.85
2023-03-29T06:33:28.081Z,-0.79
2023-03-29T06:38:44.737Z,-0.72
2023-03-29T06:44:28.931Z,-0.61
2023-03-29T06:49:41.375Z,-0.48
2023-03-29T06:55:12.311Z,-0.28
2023-03-29T07:00:28.495Z,-0.12
2023-03-29T07:06:02.055Z,0.06
2023-03-29T07:11:10.737Z,0.22
2023-03-29T07:16:19.692Z,0.46
2023-03-29T07:21:38.101Z,0.68
2023-03-29T07:27:00.250Z,0.87
2023-03-29T07:32:10.833Z,1.05
2023-03-29T07:37:25.131Z,1.23
2023-03-29T07:42:33.326Z,1.44
2023-03-29T07:47:41.248Z,1.67
2023-03-29T07:52:49.686Z,1.96
2023-03-29T07:57:57.349Z,2.35
2023-03-29T08:03:06.005Z,2.82
2023-03-29T08:08:14.797Z,3.26
2023-03-29T08:13:36.184Z,3.68
2023-03-29T08:19:07.879Z,3.91
2023-03-29T08:24:32.925Z,3.99
2023-03-29T08:29:43.472Z,4.11
2023-03-29T08:34:51.278Z,4.24
2023-03-29T08:40:04.274Z,4.30
2023-03-29T08:45:27.874Z,4.32
2023-03-29T08:50:42.942Z,4.33
2023-03-29T08:55:53.381Z,4.32
2023-03-29T09:01:25.251Z,4.31
2023-03-29T09:06:36.393Z,4.26
2023-03-29T09:12:09.036Z,4.22
2023-03-29T09:17:28.540Z,4.19
2023-03-29T09:22:45.072Z,4.18
2023-03-29T09:28:00.214Z,4.19
2023-03-29T09:33:27.528Z,4.18
2023-03-29T09:38:56.029Z,4.18
2023-03-29T09:44:23.967Z,4.16
2023-03-29T09:49:42.195Z,4.15
2023-03-29T09:54:50.435Z,4.11
2023-03-29T10:00:11.132Z,4.16
2023-03-29T10:05:22.474Z,4.15
2023-03-29T10:10:33.124Z,4.16
2023-03-29T10:15:40.533Z,4.19
2023-03-29T10:20:49.242Z,4.20
2023-03-29T10:25:57.594Z,4.23
2023-03-29T10:31:08.570Z,4.30
2023-03-29T10:36:17.034Z,4.33
2023-03-29T10:41:25.613Z,4.37
2023-03-29T10:46:36.695Z,4.44
2023-03-29T10:51:49.849Z,4.54
2023-03-29T10:57:00.737Z,4.53
2023-03-29T11:02:40.619Z,4.59
2023-03-29T11:08:09.164Z,4.68
2023-03-29T11:13:24.083Z,4.80
2023-03-29T11:18:53.124Z,4.88
2023-03-29T11:24:17.291Z,4.95
2023-03-29T11:29:30.115Z,5.02
2023-03-29T11:34:50.966Z,5.06
2023-03-29T11:40:12.143Z,5.12
2023-03-29T11:45:28.925Z,5.17
2023-03-29T11:50:44.351Z,5.25
2023-03-29T11:55:56.345Z,5.30
2023-03-29T12:01:09.734Z,5.39
2023-03-29T12:06:22.978Z,5.51
2023-03-29T12:11:38.403Z,5.62
2023-03-29T12:16:52.433Z,5.64
2023-03-29T12:22:03.375Z,5.79
2023-03-29T12:27:29.265Z,5.85
2023-03-29T12:32:48.544Z,5.93
2023-03-29T12:38:24.605Z,6.00
2023-03-29T12:43:51.369Z,6.03
2023-03-29T12:49:35.041Z,6.12
2023-03-29T12:54:42.870Z,6.24
2023-03-29T12:59:52.774Z,6.32
2023-03-29T13:05:02.087Z,6.40
2023-03-29T13:10:30.802Z,6.49
2023-03-29T13:15:39.310Z,6.61
2023-03-29T13:20:54.076Z,6.75
2023-03-29T13:26:24.749Z,6.85
2023-03-29T13:31:48.715Z,6.93
2023-03-29T13:37:05.258Z,6.96
2023-03-29T13:42:22.329Z,7.01
2023-03-29T13:47:58.450Z,7.08
2023-03-29T13:53:17.676Z,7.17
2023-03-29T13:58:36.371Z,7.19
2023-03-29T14:03:47.895Z,7.20
2023-03-29T14:08:57.120Z,7.27
2023-03-29T14:14:06.867Z,7.36
2023-03-29T14:19:20.522Z,7.44
2023-03-29T14:24:36.303Z,7.49
2023-03-29T14:29:46.822Z,7.52
2023-03-29T14:34:54.551Z,7.53
2023-03-29T14:40:02.938Z,7.53
2023-03-29T14:45:15.221Z,7.51
2023-03-29T14:50:23.405Z,7.51
2023-03-29T14:55:31.391Z,7.53
2023-03-29T15:00:44.015Z,7.54
2023-03-29T15:05:56.292Z,7.55
2023-03-29T15:11:04.649Z,7.55
2023-03-29T15:16:15.636Z,7.52
2023-03-29T15:21:33.808Z,7.49
2023-03-29T15:26:42.429Z,7.44
2023-03-29T15:31:59.433Z,7.39
2023-03-29T15:37:08.094Z,7.33
2023-03-29T15:42:16.804Z,7.28
2023-03-29T15:47:24.477Z,7.16
2023-03-29T15:52:32.219Z,7.01
2023-03-29T15:57:40.238Z,6.92
2023-03-29T16:02:47.974Z,6.85
2023-03-29T16:07:55.746Z,6.82
2023-03-29T16:13:03.584Z,6.78
2023-03-29T16:18:11.359Z,6.75
2023-03-29T16:23:18.947Z,6.71
2023-03-29T16:28:26.959Z,6.63
2023-03-29T16:33:34.609Z,6.55
2023-03-29T16:38:42.465Z,6.45
2023-03-29T16:43:49.990Z,6.33
2023-03-29T16:48:58.328Z,6.22
2023-03-29T16:54:05.688Z,6.09
2023-03-29T16:59:13.686Z,5.97
2023-03-29T17:04:20.997Z,5.86
2023-03-29T17:09:29.942Z,5.75
2023-03-29T17:14:37.749Z,5.61
2023-03-29T17:19:45.117Z,5.43
2023-03-29T17:24:52.509Z,5.24
2023-03-29T17:30:00.502Z,5.07
2023-03-29T17:35:08.792Z,4.89
2023-03-29T17:40:18.371Z,4.73
2023-03-29T17:45:26.150Z,4.57
2023-03-29T17:50:33.670Z,4.40
2023-03-29T17:55:42.763Z,4.25
2023-03-29T18:00:50.288Z,4.10
2023-03-29T18:05:58.072Z,3.96
2023-03-29T18:11:12.053Z,3.81
2023-03-29T18:16:20.172Z,3.67
2023-03-29T18:21:27.940Z,3.55
2023-03-29T18:26:35.583Z,3.44
2023-03-29T18:31:44.071Z,3.33
2023-03-29T18:36:51.528Z,3.24
2023-03-29T18:41:58.892Z,3.14
2023-03-29T18:47:06.393Z,3.06
2023-03-29T18:52:14.126Z,3.00
2023-03-29T18:57:21.513Z,2.94
2023-03-29T19:02:29.311Z,2.89
2023-03-29T19:07:37.238Z,2.84
2023-03-29T19:12:44.911Z,2.80
2023-03-29T19:17:52.214Z,2.74
2023-03-29T19:23:00.117Z,2.71
2023-03-29T19:28:09.076Z,2.69
2023-03-29T19:33:17.397Z,2.68
2023-03-29T19:38:24.986Z,2.68
2023-03-29T19:43:33.112Z,2.68
2023-03-29T19:48:40.986Z,2.69
2023-03-29T19:53:48.377Z,2.70
2023-03-29T19:58:56.099Z,2.73
2023-03-29T20:04:03.993Z,2.77
2023-03-29T20:09:11.673Z,2.80
2023-03-29T20:14:19.252Z,2.86
2023-03-29T20:19:27.234Z,2.91
2023-03-29T20:24:35.260Z,2.99
2023-03-29T20:29:43.256Z,3.05
2023-03-29T20:34:51.346Z,3.12
2023-03-29T20:39:59.751Z,3.18
2023-03-29T20:45:08.427Z,3.25
2023-03-29T20:50:19.133Z,3.29
2023-03-29T20:55:27.265Z,3.32
2023-03-29T21:00:35.872Z,3.36
2023-03-29T21:05:43.791Z,3.39
2023-03-29T21:10:52.140Z,3.43
2023-03-29T21:16:01.203Z,3.45
2023-03-29T21:21:11.156Z,3.48
2023-03-29T21:26:18.975Z,3.52
2023-03-29T21:31:26.618Z,3.56
2023-03-29T21:36:34.211Z,3.60
2023-03-29T21:41:41.811Z,3.62
2023-03-29T21:46:49.271Z,3.66
2023-03-29T21:51:57.209Z,3.69
2023-03-29T21:57:04.727Z,3.73
2023-03-29T22:02:12.543Z,3.76
2023-03-29T22:07:23.140Z,3.81
2023-03-29T22:12:30.716Z,3.85
2023-03-29T22:17:38.805Z,3.86
2023-03-29T22:22:50.089Z,3.89
2023-03-29T22:27:57.413Z,3.90
2023-03-29T22:33:05.074Z,3.91
2023-03-29T22:38:13.096Z,3.90
2023-03-29T22:43:20.416Z,3.90
2023-03-29T22:48:28.064Z,3.89
2023-03-29T22:53:35.871Z,3.89
2023-03-29T22:58:43.848Z,3.87
2023-03-29T23:03:51.708Z,3.87
2023-03-29T23:08:59.372Z,3.87
2023-03-29T23:14:07.973Z,3.89
2023-03-29T23:19:15.446Z,3.88
2023-03-29T23:24:23.252Z,3.89
2023-03-29T23:29:30.957Z,3.90
2023-03-29T23:34:38.260Z,3.92
2023-03-29T23:39:45.774Z,3.93
2023-03-29T23:44:53.222Z,3.95
2023-03-29T23:50:02.593Z,3.96
2023-03-29T23:55:15.365Z,3.98
